createdAt,value
2022-09-25T00:01:00.721Z,43.97
2022-09-25T00:03:29.491Z,51.03
2022-09-25T00:06:05.119Z,48.43
2022-09-25T00:08:32.450Z,40.00
2022-09-25T00:10:59.486Z,47.20
2022-09-25T00:13:26.510Z,40.63
2022-09-25T00:15:56.354Z,45.37
2022-09-25T00:18:43.791Z,42.93
2022-09-25T00:21:14.157Z,39.73
2022-09-25T00:23:43.141Z,44.77
2022-09-25T00:26:09.824Z,43.63
2022-09-25T00:28:37.469Z,45.00
2022-09-25T00:31:05.924Z,44.30
2022-09-25T00:33:33.781Z,43.17
2022-09-25T00:36:06.232Z,37.60
2022-09-25T00:38:34.373Z,42.80
2022-09-25T00:41:02.490Z,61.80
2022-09-25T00:43:41.737Z,46.90
2022-09-25T00:46:36.564Z,45.90
2022-09-25T00:49:10.374Z,37.20
2022-09-25T00:51:54.449Z,50.27
2022-09-25T00:54:27.468Z,34.70
2022-09-25T00:56:56.302Z,41.53
2022-09-25T00:59:27.898Z,37.23
2022-09-25T01:01:55.321Z,38.50
2022-09-25T01:04:23.138Z,41.53
2022-09-25T01:06:52.876Z,37.90
2022-09-25T01:09:20.030Z,41.50
2022-09-25T01:11:47.091Z,50.00
2022-09-25T01:14:17.281Z,39.67
2022-09-25T01:17:21.729Z,36.37
2022-09-25T01:19:53.970Z,40.77
2022-09-25T01:22:58.227Z,39.90
2022-09-25T01:25:46.162Z,38.33
2022-09-25T01:28:27.245Z,40.70
2022-09-25T01:31:01.667Z,38.53
2022-09-25T01:33:41.723Z,40.50
2022-09-25T01:36:34.412Z,51.07
2022-09-25T01:39:21.180Z,45.93
2022-09-25T01:41:50.799Z,48.20
2022-09-25T01:44:40.128Z,43.20
2022-09-25T01:47:12.054Z,40.37
2022-09-25T01:49:44.988Z,46.17
2022-09-25T01:52:16.695Z,49.70
2022-09-25T01:54:51.873Z,46.93
2022-09-25T01:57:29.506Z,47.47
2022-09-25T02:00:09.924Z,50.83
2022-09-25T02:02:57.326Z,46.43
2022-09-25T02:05:32.727Z,44.87
2022-09-25T02:08:04.688Z,40.27
2022-09-25T02:10:40.021Z,46.30
2022-09-25T02:13:13.147Z,36.80
2022-09-25T02:15:54.269Z,35.07
2022-09-25T02:18:41.055Z,39.00
2022-09-25T02:21:40.256Z,39.17
2022-09-25T02:24:14.461Z,37.77
2022-09-25T02:26:41.245Z,34.33
2022-09-25T02:29:08.949Z,38.27
2022-09-25T02:31:42.962Z,39.97
2022-09-25T02:34:14.715Z,32.73
2022-09-25T02:36:43.140Z,39.47
2022-09-25T02:39:11.505Z,42.63
2022-09-25T02:41:54.532Z,33.97
2022-09-25T02:44:58.948Z,39.37
2022-09-25T02:48:08.570Z,36.83
2022-09-25T02:50:51.500Z,36.53
2022-09-25T02:53:33.064Z,33.70
2022-09-25T02:56:05.499Z,31.60
2022-09-25T02:58:54.995Z,39.07
2022-09-25T03:01:24.831Z,40.03
2022-09-25T03:03:54.698Z,32.03
2022-09-25T03:06:22.485Z,31.60
2022-09-25T03:08:52.952Z,33.33
2022-09-25T03:11:21.688Z,31.87
2022-09-25T03:14:02.812Z,35.93
2022-09-25T03:16:40.561Z,29.00
2022-09-25T03:19:07.877Z,33.77
2022-09-25T03:21:34.532Z,37.53
2022-09-25T03:24:01.451Z,28.63
2022-09-25T03:26:28.221Z,26.40
2022-09-25T03:28:54.939Z,30.10
2022-09-25T03:31:21.628Z,28.17
2022-09-25T03:33:48.776Z,29.33
2022-09-25T03:36:20.610Z,30.70
2022-09-25T03:38:50.469Z,29.50
2022-09-25T03:41:21.250Z,34.47
2022-09-25T03:43:51.299Z,27.33
2022-09-25T03:46:26.596Z,30.53
2022-09-25T03:48:53.963Z,34.83
2022-09-25T03:51:21.532Z,42.20
2022-09-25T03:53:50.514Z,39.17
2022-09-25T03:56:20.316Z,37.97
2022-09-25T03:58:48.465Z,40.63
2022-09-25T04:01:16.402Z,39.93
2022-09-25T04:03:47.278Z,44.00
2022-09-25T04:06:18.531Z,42.27
2022-09-25T04:08:46.931Z,42.70
2022-09-25T04:11:15.031Z,44.17
2022-09-25T04:13:43.376Z,48.50
2022-09-25T04:16:10.797Z,78.47
2022-09-25T04:18:37.838Z,43.43
2022-09-25T04:21:08.277Z,40.50
2022-09-25T04:23:36.427Z,43.43
2022-09-25T04:26:03.865Z,43.33
2022-09-25T04:28:32.175Z,52.10
2022-09-25T04:31:00.038Z,51.93
2022-09-25T04:33:45.353Z,40.33
2022-09-25T04:36:12.011Z,46.23
2022-09-25T04:38:38.722Z,55.33
2022-09-25T04:41:05.754Z,46.20
2022-09-25T04:43:33.046Z,44.03
2022-09-25T04:46:08.670Z,49.43
2022-09-25T04:48:35.941Z,52.17
2022-09-25T04:51:03.902Z,44.03
2022-09-25T04:53:31.711Z,47.70
2022-09-25T04:56:12.205Z,42.73
2022-09-25T04:58:45.098Z,44.00
2022-09-25T05:01:11.777Z,52.70
2022-09-25T05:03:38.495Z,44.90
2022-09-25T05:06:05.314Z,48.83
2022-09-25T05:08:31.918Z,40.87
2022-09-25T05:10:58.665Z,43.80
2022-09-25T05:13:25.395Z,47.67
2022-09-25T05:15:52.149Z,46.37
2022-09-25T05:18:21.304Z,47.13
2022-09-25T05:20:48.842Z,41.13
2022-09-25T05:23:16.313Z,40.77
2022-09-25T05:25:43.111Z,49.53
2022-09-25T05:28:10.095Z,41.27
2022-09-25T05:30:38.757Z,43.37
2022-09-25T05:33:05.750Z,49.07
2022-09-25T05:35:33.354Z,49.10
2022-09-25T05:37:59.990Z,43.70
2022-09-25T05:40:27.124Z,36.70
2022-09-25T05:42:55.216Z,39.83
2022-09-25T05:45:23.317Z,39.37
2022-09-25T05:47:59.917Z,40.20
2022-09-25T05:50:27.059Z,47.90
2022-09-25T05:52:57.827Z,39.87
2022-09-25T05:55:25.069Z,49.40
2022-09-25T05:57:51.784Z,41.63
2022-09-25T06:00:18.703Z,46.03
2022-09-25T06:02:45.428Z,38.83
2022-09-25T06:05:12.042Z,39.63
2022-09-25T06:07:38.735Z,46.33
2022-09-25T06:10:06.092Z,43.20
2022-09-25T06:12:32.692Z,39.83
2022-09-25T06:14:59.306Z,41.93
2022-09-25T06:17:25.943Z,43.10
2022-09-25T06:19:52.620Z,43.57
2022-09-25T06:22:19.276Z,44.07
2022-09-25T06:24:45.945Z,49.50
2022-09-25T06:27:12.549Z,44.20
2022-09-25T06:29:39.164Z,50.10
2022-09-25T06:32:05.830Z,39.87
2022-09-25T06:34:32.715Z,38.60
2022-09-25T06:37:00.825Z,39.27
2022-09-25T06:39:27.451Z,44.93
2022-09-25T06:41:54.332Z,42.97
2022-09-25T06:44:22.566Z,46.33
2022-09-25T06:46:54.471Z,42.43
2022-09-25T06:49:21.956Z,47.77
2022-09-25T06:51:50.900Z,52.37
2022-09-25T06:54:17.807Z,44.27
2022-09-25T06:56:48.012Z,48.43
2022-09-25T06:59:14.802Z,48.20
2022-09-25T07:01:41.564Z,45.13
2022-09-25T07:04:08.203Z,48.00
2022-09-25T07:06:37.284Z,46.07
2022-09-25T07:09:04.089Z,49.07
2022-09-25T07:11:33.668Z,55.20
2022-09-25T07:14:00.336Z,55.47
2022-09-25T07:16:30.746Z,57.77
2022-09-25T07:19:01.337Z,50.50
2022-09-25T07:21:30.569Z,46.53
2022-09-25T07:23:58.718Z,48.33
2022-09-25T07:26:28.205Z,44.23
2022-09-25T07:29:00.567Z,54.10
2022-09-25T07:31:32.782Z,56.13
2022-09-25T07:34:02.906Z,57.33
2022-09-25T07:36:29.838Z,49.03
2022-09-25T07:38:56.445Z,47.20
2022-09-25T07:41:23.640Z,46.97
2022-09-25T07:44:17.723Z,44.60
2022-09-25T07:46:44.414Z,35.60
2022-09-25T07:49:11.697Z,35.77
2022-09-25T07:51:38.362Z,32.30
2022-09-25T07:54:05.184Z,26.27
2022-09-25T07:56:34.396Z,15.90
2022-09-25T07:59:01.021Z,13.63
2022-09-25T08:01:27.729Z,14.37
2022-09-25T08:03:54.734Z,7.90
2022-09-25T08:06:21.479Z,7.70
2022-09-25T08:08:48.108Z,8.33
2022-09-25T08:11:16.971Z,7.63
2022-09-25T08:13:44.455Z,7.20
2022-09-25T08:16:14.754Z,6.13
2022-09-25T08:18:43.120Z,6.27
2022-09-25T08:21:11.061Z,6.80
2022-09-25T08:23:37.736Z,8.17
2022-09-25T08:26:04.410Z,13.13
2022-09-25T08:28:31.086Z,7.50
2022-09-25T08:31:04.572Z,11.83
2022-09-25T08:33:31.891Z,10.50
2022-09-25T08:36:01.038Z,12.30
2022-09-25T08:38:28.684Z,10.37
2022-09-25T08:41:02.049Z,11.57
2022-09-25T08:43:29.664Z,12.87
2022-09-25T08:46:19.107Z,15.10
2022-09-25T08:49:04.781Z,13.40
2022-09-25T08:51:38.860Z,14.20
2022-09-25T08:54:06.155Z,14.27
2022-09-25T08:56:35.191Z,14.30
2022-09-25T08:59:01.975Z,12.13
2022-09-25T09:01:40.147Z,14.10
2022-09-25T09:04:18.159Z,11.30
2022-09-25T09:06:49.797Z,10.10
2022-09-25T09:09:27.157Z,10.83
2022-09-25T09:12:08.359Z,9.00
2022-09-25T09:14:43.287Z,9.03
2022-09-25T09:17:18.620Z,6.93
2022-09-25T09:20:06.933Z,8.80
2022-09-25T09:22:42.092Z,6.97
2022-09-25T09:25:27.006Z,11.50
2022-09-25T09:28:38.338Z,8.77
2022-09-25T09:31:24.713Z,9.93
2022-09-25T09:34:36.205Z,8.03
2022-09-25T09:37:37.990Z,7.90
2022-09-25T09:40:27.203Z,13.60
2022-09-25T09:43:16.748Z,11.70
2022-09-25T09:45:46.232Z,12.40
2022-09-25T09:48:25.751Z,14.17
2022-09-25T09:51:06.293Z,14.47
2022-09-25T09:53:47.910Z,14.73
2022-09-25T09:56:35.445Z,15.40
2022-09-25T09:59:12.866Z,15.20
2022-09-25T10:01:42.787Z,17.43
2022-09-25T10:04:29.869Z,14.83
2022-09-25T10:07:03.307Z,15.17
2022-09-25T10:09:29.928Z,19.13
2022-09-25T10:12:20.787Z,15.83
2022-09-25T10:14:48.481Z,16.63
2022-09-25T10:17:17.052Z,13.80
2022-09-25T10:19:58.259Z,19.97
2022-09-25T10:22:28.946Z,16.50
2022-09-25T10:25:03.441Z,13.60
2022-09-25T10:27:33.192Z,13.97
2022-09-25T10:30:12.229Z,12.33
2022-09-25T10:32:57.754Z,18.60
2022-09-25T10:35:39.956Z,15.17
2022-09-25T10:38:36.850Z,16.83
2022-09-25T10:41:12.487Z,17.77
2022-09-25T10:43:54.216Z,14.77
2022-09-25T10:46:52.116Z,13.97
2022-09-25T10:49:43.110Z,18.23
2022-09-25T10:52:12.604Z,18.47
2022-09-25T10:54:44.771Z,19.73
2022-09-25T10:57:38.323Z,19.00
2022-09-25T11:00:19.860Z,14.67
2022-09-25T11:02:48.368Z,11.53
2022-09-25T11:05:36.182Z,15.37
2022-09-25T11:08:06.727Z,17.30
2022-09-25T11:10:56.365Z,11.57
2022-09-25T11:13:36.823Z,15.77
2022-09-25T11:16:10.292Z,15.47
2022-09-25T11:18:39.050Z,16.93
2022-09-25T11:21:16.780Z,17.40
2022-09-25T11:24:01.686Z,18.80
2022-09-25T11:26:36.487Z,13.47
2022-09-25T11:29:15.572Z,17.00
2022-09-25T11:31:56.056Z,12.37
2022-09-25T11:34:51.869Z,16.80
2022-09-25T11:37:20.579Z,10.80
2022-09-25T11:40:15.483Z,15.73
2022-09-25T11:42:59.732Z,11.60
2022-09-25T11:45:36.686Z,16.20
2022-09-25T11:48:10.610Z,14.70
2022-09-25T11:51:01.673Z,16.40
2022-09-25T11:53:28.232Z,21.27
2022-09-25T11:56:06.792Z,14.57
2022-09-25T11:59:15.677Z,13.33
2022-09-25T12:01:55.110Z,7.30
2022-09-25T12:05:00.931Z,16.33
2022-09-25T12:07:35.874Z,12.10
2022-09-25T12:10:29.413Z,9.60
2022-09-25T12:13:16.541Z,10.80
2022-09-25T12:15:58.750Z,11.10
2022-09-25T12:18:52.622Z,11.30
2022-09-25T12:21:32.102Z,14.83
2022-09-25T12:24:10.411Z,12.87
2022-09-25T12:27:13.733Z,13.43
2022-09-25T12:30:03.496Z,13.30
2022-09-25T12:32:48.264Z,17.90
2022-09-25T12:35:33.754Z,13.67
2022-09-25T12:38:31.246Z,10.70
2022-09-25T12:41:17.920Z,13.07
2022-09-25T12:43:48.070Z,16.10
2022-09-25T12:46:34.189Z,8.97
2022-09-25T12:49:16.121Z,12.10
2022-09-25T12:51:50.006Z,10.37
2022-09-25T12:54:32.461Z,14.83
2022-09-25T12:57:06.111Z,9.77
2022-09-25T13:00:20.162Z,20.53
2022-09-25T13:03:02.409Z,8.03
2022-09-25T13:05:46.408Z,9.00
2022-09-25T13:08:29.473Z,7.43
2022-09-25T13:11:01.826Z,11.13
2022-09-25T13:13:36.326Z,8.90
2022-09-25T13:16:03.239Z,8.83
2022-09-25T13:18:33.951Z,13.20
2022-09-25T13:21:39.134Z,10.27
2022-09-25T13:24:09.108Z,4.30
2022-09-25T13:26:52.633Z,5.20
2022-09-25T13:29:31.646Z,8.40
2022-09-25T13:32:19.005Z,3.23
2022-09-25T13:34:46.732Z,7.47
2022-09-25T13:37:15.772Z,6.77
2022-09-25T13:40:07.195Z,8.77
2022-09-25T13:42:37.896Z,6.97
2022-09-25T13:45:22.316Z,9.00
2022-09-25T13:47:56.055Z,7.10
2022-09-25T13:50:31.121Z,5.87
2022-09-25T13:53:20.183Z,5.10
2022-09-25T13:55:55.687Z,4.20
2022-09-25T13:58:25.689Z,8.50
2022-09-25T14:00:58.826Z,12.87
2022-09-25T14:03:37.841Z,4.83
2022-09-25T14:06:09.525Z,14.87
2022-09-25T14:08:41.358Z,3.00
2022-09-25T14:11:11.720Z,11.43
2022-09-25T14:13:43.153Z,5.70
2022-09-25T14:16:31.985Z,6.20
2022-09-25T14:19:00.887Z,7.63
2022-09-25T14:21:29.610Z,5.70
2022-09-25T14:23:58.310Z,5.10
2022-09-25T14:26:27.405Z,6.00
2022-09-25T14:28:55.996Z,5.70
2022-09-25T14:31:32.070Z,5.00
2022-09-25T14:34:34.217Z,8.67
2022-09-25T14:37:20.371Z,9.27
2022-09-25T14:40:01.995Z,4.70
2022-09-25T14:42:52.077Z,4.13
2022-09-25T14:45:34.285Z,6.63
2022-09-25T14:48:05.407Z,3.03
2022-09-25T14:50:38.903Z,9.00
2022-09-25T14:53:14.313Z,5.30
2022-09-25T14:55:48.799Z,8.80
2022-09-25T14:58:20.331Z,8.73
2022-09-25T15:01:00.024Z,2.53
2022-09-25T15:03:31.842Z,3.00
2022-09-25T15:06:02.137Z,10.00
2022-09-25T15:08:40.772Z,7.13
2022-09-25T15:11:14.449Z,7.00
2022-09-25T15:13:42.144Z,5.83
2022-09-25T15:16:41.600Z,5.07
2022-09-25T15:19:17.338Z,9.33
2022-09-25T15:21:44.265Z,11.50
2022-09-25T15:24:18.833Z,6.47
2022-09-25T15:27:02.661Z,8.40
2022-09-25T15:29:35.496Z,9.30
2022-09-25T15:32:03.505Z,4.63
2022-09-25T15:34:31.180Z,6.30
2022-09-25T15:37:29.435Z,1.87
2022-09-25T15:40:00.729Z,8.73
2022-09-25T15:42:27.347Z,8.10
2022-09-25T15:44:57.376Z,10.23
2022-09-25T15:47:35.794Z,3.60
2022-09-25T15:50:15.444Z,4.40
2022-09-25T15:52:42.077Z,5.03
2022-09-25T15:55:14.626Z,7.17
2022-09-25T15:57:42.039Z,21.83
2022-09-25T16:00:39.087Z,7.47
2022-09-25T16:03:42.347Z,12.57
2022-09-25T16:06:18.482Z,6.20
2022-09-25T16:08:45.106Z,19.73
2022-09-25T16:11:25.208Z,3.17
2022-09-25T16:13:54.201Z,2.87
2022-09-25T16:16:30.372Z,7.80
2022-09-25T16:18:59.611Z,2.03
2022-09-25T16:21:28.776Z,4.37
2022-09-25T16:24:05.752Z,5.40
2022-09-25T16:26:41.983Z,4.17
2022-09-25T16:29:22.203Z,5.10
2022-09-25T16:31:53.315Z,4.23
2022-09-25T16:34:30.043Z,1.90
2022-09-25T16:37:05.266Z,3.57
2022-09-25T16:39:37.408Z,3.03
2022-09-25T16:42:29.487Z,3.03
2022-09-25T16:45:17.494Z,3.37
2022-09-25T16:47:49.239Z,5.27
2022-09-25T16:50:16.746Z,8.40
2022-09-25T16:52:44.478Z,5.10
2022-09-25T16:55:18.363Z,3.13
2022-09-25T16:57:46.315Z,16.97
2022-09-25T17:00:16.751Z,1.80
2022-09-25T17:02:44.927Z,3.73
2022-09-25T17:05:19.290Z,8.20
2022-09-25T17:07:50.558Z,3.33
2022-09-25T17:10:20.408Z,11.07
2022-09-25T17:12:53.471Z,11.63
2022-09-25T17:15:34.508Z,5.40
2022-09-25T17:18:02.289Z,7.90
2022-09-25T17:20:33.985Z,6.17
2022-09-25T17:23:00.689Z,3.30
2022-09-25T17:25:48.378Z,5.70
2022-09-25T17:28:15.556Z,5.93
2022-09-25T17:30:43.737Z,7.43
2022-09-25T17:33:15.945Z,3.17
2022-09-25T17:36:05.543Z,14.37
2022-09-25T17:38:33.786Z,4.37
2022-09-25T17:41:05.613Z,4.07
2022-09-25T17:43:32.967Z,7.97
2022-09-25T17:46:00.816Z,6.50
2022-09-25T17:48:30.402Z,2.40
2022-09-25T17:51:02.259Z,6.23
2022-09-25T17:53:31.612Z,3.63
2022-09-25T17:56:00.012Z,2.30
2022-09-25T17:58:28.718Z,1.83
2022-09-25T18:00:59.298Z,7.63
2022-09-25T18:03:26.701Z,9.40
2022-09-25T18:05:53.829Z,16.93
2022-09-25T18:08:20.456Z,11.20
2022-09-25T18:10:48.845Z,5.03
2022-09-25T18:13:23.039Z,3.37
2022-09-25T18:15:54.281Z,5.10
2022-09-25T18:18:21.262Z,4.17
2022-09-25T18:21:09.314Z,7.67
2022-09-25T18:23:38.435Z,11.03
2022-09-25T18:26:07.638Z,7.43
2022-09-25T18:28:34.286Z,6.23
2022-09-25T18:31:00.921Z,7.63
2022-09-25T18:33:27.753Z,8.37
2022-09-25T18:35:54.799Z,10.03
2022-09-25T18:38:21.488Z,10.93
2022-09-25T18:40:48.293Z,5.63
2022-09-25T18:43:15.159Z,8.37
2022-09-25T18:45:50.939Z,13.53
2022-09-25T18:48:17.597Z,7.00
2022-09-25T18:50:49.209Z,6.37
2022-09-25T18:53:16.847Z,8.80
2022-09-25T18:55:43.936Z,11.80
2022-09-25T18:58:11.414Z,4.00
2022-09-25T19:00:39.814Z,12.30
2022-09-25T19:03:06.901Z,9.30
2022-09-25T19:05:33.623Z,6.00
2022-09-25T19:08:00.379Z,11.90
2022-09-25T19:10:30.271Z,7.40
2022-09-25T19:12:56.888Z,9.00
2022-09-25T19:15:24.802Z,6.20
2022-09-25T19:17:51.423Z,6.00
2022-09-25T19:20:18.089Z,6.03
2022-09-25T19:22:45.704Z,8.87
2022-09-25T19:25:12.348Z,11.00
2022-09-25T19:27:38.996Z,41.70
2022-09-25T19:30:06.082Z,12.13
2022-09-25T19:32:32.877Z,14.37
2022-09-25T19:34:59.741Z,13.10
2022-09-25T19:37:29.781Z,13.90
2022-09-25T19:40:15.430Z,8.30
2022-09-25T19:42:42.170Z,12.73
2022-09-25T19:45:09.645Z,10.57
2022-09-25T19:47:36.334Z,6.73
2022-09-25T19:50:06.886Z,13.03
2022-09-25T19:52:33.474Z,13.07
2022-09-25T19:55:00.071Z,13.33
2022-09-25T19:57:27.604Z,18.60
2022-09-25T19:59:54.910Z,11.10
2022-09-25T20:02:21.643Z,11.20
2022-09-25T20:04:48.650Z,10.40
2022-09-25T20:07:16.500Z,3.90
2022-09-25T20:09:44.478Z,8.47
2022-09-25T20:12:11.530Z,4.33
2022-09-25T20:14:38.468Z,6.37
2022-09-25T20:17:09.681Z,11.43
2022-09-25T20:19:36.939Z,10.53
2022-09-25T20:22:03.545Z,13.53
2022-09-25T20:24:30.172Z,11.73
2022-09-25T20:26:56.787Z,4.40
2022-09-25T20:29:23.376Z,9.73
2022-09-25T20:31:50.164Z,4.20
2022-09-25T20:34:19.481Z,8.03
2022-09-25T20:36:47.054Z,6.87
2022-09-25T20:39:19.861Z,9.00
2022-09-25T20:41:47.908Z,5.97
2022-09-25T20:44:14.669Z,7.53
2022-09-25T20:46:42.022Z,7.10
2022-09-25T20:49:10.275Z,15.33
2022-09-25T20:51:37.280Z,7.63
2022-09-25T20:54:07.900Z,3.60
2022-09-25T20:56:36.738Z,8.20
2022-09-25T20:59:04.537Z,2.97
2022-09-25T21:01:34.628Z,7.50
2022-09-25T21:04:03.200Z,9.83
2022-09-25T21:06:32.210Z,13.20
2022-09-25T21:09:01.162Z,6.83
2022-09-25T21:11:30.068Z,12.03
2022-09-25T21:13:58.410Z,7.60
2022-09-25T21:16:26.814Z,10.93
2022-09-25T21:18:59.687Z,9.47
2022-09-25T21:21:27.761Z,7.20
2022-09-25T21:23:56.006Z,4.40
2022-09-25T21:26:25.116Z,15.73
2022-09-25T21:28:54.772Z,5.13
2022-09-25T21:31:24.186Z,13.20
2022-09-25T21:33:52.910Z,5.70
2022-09-25T21:36:20.623Z,2.70
2022-09-25T21:38:47.492Z,4.40
2022-09-25T21:41:15.980Z,10.27
2022-09-25T21:43:43.426Z,4.63
2022-09-25T21:46:18.288Z,3.77
2022-09-25T21:48:57.106Z,8.30
2022-09-25T21:51:27.213Z,5.13
2022-09-25T21:53:54.932Z,4.13
2022-09-25T21:56:24.181Z,6.73
2022-09-25T21:58:53.252Z,5.00
2022-09-25T22:01:23.049Z,7.10
2022-09-25T22:03:51.532Z,8.03
2022-09-25T22:06:26.280Z,13.93
2022-09-25T22:08:56.283Z,5.80
2022-09-25T22:11:23.554Z,7.83
2022-09-25T22:13:51.631Z,11.23
2022-09-25T22:16:22.573Z,7.40
2022-09-25T22:18:54.722Z,8.90
2022-09-25T22:21:24.117Z,12.40
2022-09-25T22:23:50.873Z,7.90
2022-09-25T22:26:18.966Z,10.33
2022-09-25T22:28:45.714Z,9.63
2022-09-25T22:31:21.132Z,4.93
2022-09-25T22:33:52.360Z,4.27
2022-09-25T22:36:18.985Z,6.83
2022-09-25T22:38:45.617Z,5.60
2022-09-25T22:41:14.262Z,55.30
2022-09-25T22:43:42.139Z,42.03
2022-09-25T22:46:11.063Z,11.13
2022-09-25T22:48:38.220Z,9.40
2022-09-25T22:51:16.727Z,9.43
2022-09-25T22:53:43.684Z,11.67
2022-09-25T22:56:21.868Z,6.60
2022-09-25T22:58:51.755Z,4.73
2022-09-25T23:01:31.737Z,2.20
2022-09-25T23:04:00.401Z,5.20
2022-09-25T23:06:29.152Z,7.00
2022-09-25T23:08:58.505Z,5.57
2022-09-25T23:11:26.431Z,8.10
2022-09-25T23:13:58.837Z,6.40
2022-09-25T23:16:26.029Z,7.13
2022-09-25T23:18:53.077Z,10.37
2022-09-25T23:21:19.683Z,7.63
2022-09-25T23:23:46.336Z,5.00
2022-09-25T23:26:13.043Z,6.43
2022-09-25T23:28:41.309Z,6.87
2022-09-25T23:31:13.905Z,6.90
2022-09-25T23:33:41.473Z,3.20
2022-09-25T23:36:17.648Z,3.43
2022-09-25T23:38:44.955Z,3.67
2022-09-25T23:41:26.771Z,4.50
2022-09-25T23:43:54.809Z,7.83
2022-09-25T23:46:25.106Z,11.53
2022-09-25T23:48:52.427Z,8.27
2022-09-25T23:51:19.727Z,3.80
2022-09-25T23:53:47.100Z,5.23
2022-09-25T23:56:18.061Z,5.50
2022-09-25T23:58:44.840Z,4.87
